Time;durP1;ratioP1;P1;durP2;ratioP2;P2;SDS_P1;SDS_P2;PMS_P1;PMS_P2;Temp;Humidity;BMP_temperature;BMP_pressure;BME280_temperature;BME280_humidity;BME280_pressure;Samples;Min_cycle;Max_cycle;Signal;HPM_P1;HPM_P2
2021/12/27 00:00:35;;;;;;;11.35;10.85;;;;;;;-3.85;100.00;101103.91;4973066;28;20073;-68
2021/12/27 00:03:02;;;;;;;11.52;10.93;;;;;;;-3.84;100.00;101108.19;4973397;28;20496;-68
2021/12/27 00:05:29;;;;;;;11.07;10.57;;;;;;;-3.83;100.00;101117.63;4974531;28;20515;-67
2021/12/27 00:07:54;;;;;;;11.63;11.02;;;;;;;-3.92;100.00;101111.13;4973118;28;20018;-66
2021/12/27 00:10:22;;;;;;;11.65;11.05;;;;;;;-3.96;100.00;101110.44;4972880;28;20034;-71
2021/12/27 00:12:48;;;;;;;11.38;10.82;;;;;;;-4.04;100.00;101119.41;4973050;28;20159;-68
2021/12/27 00:15:14;;;;;;;12.52;11.82;;;;;;;-4.00;100.00;101114.03;4972765;28;20035;-69
2021/12/27 00:17:42;;;;;;;11.68;11.07;;;;;;;-4.00;100.00;101120.97;4972855;28;20027;-69
2021/12/27 00:20:09;;;;;;;11.98;11.38;;;;;;;-4.03;100.00;101108.16;4972899;28;20066;-67
2021/12/27 00:22:35;;;;;;;12.32;11.73;;;;;;;-4.08;100.00;101117.88;4972818;28;20023;-70
2021/12/27 00:25:00;;;;;;;11.73;11.23;;;;;;;-3.94;100.00;101112.94;4974094;28;20484;-71
2021/12/27 00:27:26;;;;;;;12.02;11.45;;;;;;;-3.84;100.00;101110.78;4972741;28;20035;-70
2021/12/27 00:29:54;;;;;;;12.75;12.05;;;;;;;-3.89;100.00;101118.78;4972670;28;20030;-71
2021/12/27 00:32:19;;;;;;;11.52;10.93;;;;;;;-3.77;100.00;101109.59;4972597;28;20031;-71
2021/12/27 00:34:45;;;;;;;11.27;10.77;;;;;;;-3.83;100.00;101115.03;4972757;28;20033;-70
2021/12/27 00:37:10;;;;;;;11.65;11.05;;;;;;;-3.73;100.00;101119.75;4973542;28;20496;-67
2021/12/27 00:39:36;;;;;;;11.95;11.35;;;;;;;-3.84;100.00;101116.78;4972705;28;20105;-72
2021/12/27 00:42:03;;;;;;;11.68;11.07;;;;;;;-3.77;100.00;101110.44;4972497;28;20050;-69
2021/12/27 00:44:29;;;;;;;11.27;10.75;;;;;;;-3.79;100.00;101093.28;4973594;28;20085;-68
2021/12/27 00:46:55;;;;;;;11.15;10.65;;;;;;;-3.81;100.00;101089.91;4972817;28;20026;-68
2021/12/27 00:49:20;;;;;;;11.27;10.77;;;;;;;-3.90;100.00;101096.31;4971854;28;20444;-68
2021/12/27 00:51:46;;;;;;;11.27;10.77;;;;;;;-3.84;100.00;101096.06;4971890;28;20058;-72
2021/12/27 00:54:12;;;;;;;11.45;10.85;;;;;;;-3.90;100.00;101099.75;4972118;28;20043;-69
2021/12/27 00:56:37;;;;;;;12.45;11.75;;;;;;;-3.90;100.00;101093.75;4972131;28;20023;-70
2021/12/27 00:59:03;;;;;;;11.15;10.65;;;;;;;-3.93;100.00;101089.53;4972355;28;20039;-70
2021/12/27 01:01:28;;;;;;;11.68;11.07;;;;;;;-3.79;100.00;101093.28;4972279;28;20557;-70
2021/12/27 01:03:54;;;;;;;11.40;10.85;;;;;;;-3.94;100.00;101089.63;4972531;28;20027;-68
2021/12/27 01:06:20;;;;;;;12.23;11.55;;;;;;;-3.87;100.00;101083.25;4972196;28;20495;-71
2021/12/27 01:08:45;;;;;;;11.55;10.95;;;;;;;-3.94;100.00;101084.44;4971608;28;20027;-72
2021/12/27 01:12:11;;;;;;;11.38;10.88;;;;;;;-3.90;100.00;101071.25;4972188;28;20125;-71
2021/12/27 01:14:09;;;;;;;12.20;11.60;;;;;;;-3.88;100.00;101063.44;4974769;28;20524;-66
2021/12/27 01:16:35;;;;;;;11.27;10.77;;;;;;;-4.00;100.00;101070.00;4972293;28;20547;-71
2021/12/27 01:19:01;;;;;;;11.95;11.35;;;;;;;-4.01;100.00;101070.06;4972131;28;20055;-68
2021/12/27 01:21:27;;;;;;;11.65;11.05;;;;;;;-4.06;100.00;101072.00;4972070;28;20070;-69
2021/12/27 01:23:55;;;;;;;11.25;10.73;;;;;;;-4.03;100.00;101072.72;4971886;28;20492;-71
2021/12/27 01:26:21;;;;;;;11.68;11.07;;;;;;;-4.03;100.00;101077.91;4972254;28;20027;-71
2021/12/27 01:28:47;;;;;;;11.68;11.07;;;;;;;-3.93;100.00;101075.75;4971990;28;20027;-69
2021/12/27 01:31:13;;;;;;;11.20;10.70;;;;;;;-4.07;100.00;101078.09;4972125;28;20038;-69
2021/12/27 01:33:39;;;;;;;12.20;11.60;;;;;;;-3.97;100.00;101076.78;4971827;28;20058;-71
2021/12/27 01:36:07;;;;;;;11.55;10.95;;;;;;;-3.95;100.00;101062.03;4971896;28;20022;-69
2021/12/27 01:38:37;;;;;;;12.07;11.48;;;;;;;-3.94;100.00;101063.69;4971939;28;20121;-66
2021/12/27 01:41:04;;;;;;;11.15;10.65;;;;;;;-3.87;100.00;101061.69;4971955;28;20042;-67
2021/12/27 01:43:32;;;;;;;11.68;11.07;;;;;;;-3.91;100.00;101064.38;4971899;28;20070;-70
2021/12/27 01:46:01;;;;;;;11.43;10.85;;;;;;;-3.79;100.00;101064.75;4971681;28;20122;-69
2021/12/27 01:48:32;;;;;;;10.95;10.45;;;;;;;-3.90;100.00;101067.81;4971655;28;20038;-67
2021/12/27 01:51:00;;;;;;;11.70;11.10;;;;;;;-3.87;100.00;101066.84;4971796;28;20057;-68
2021/12/27 01:53:28;;;;;;;11.73;11.13;;;;;;;-3.95;100.00;101067.22;4971525;28;20053;-68
2021/12/27 01:55:55;;;;;;;11.50;10.98;;;;;;;-3.95;100.00;101067.22;4971782;28;20437;-69
2021/12/27 01:58:21;;;;;;;12.27;11.68;;;;;;;-3.85;100.00;101078.00;4971559;28;20552;-68
2021/12/27 02:00:51;;;;;;;10.93;10.43;;;;;;;-3.82;100.00;101075.25;4971840;28;20035;-70
2021/12/27 02:03:19;;;;;;;11.20;10.70;;;;;;;-3.83;100.00;101077.00;4974037;28;20452;-71
2021/12/27 02:05:45;;;;;;;11.55;10.95;;;;;;;-3.89;100.00;101077.31;4962385;28;20106;-71
2021/12/27 02:08:11;;;;;;;10.98;10.48;;;;;;;-3.81;100.00;101075.19;4968104;28;20083;-69
2021/12/27 02:10:37;;;;;;;12.15;11.45;;;;;;;-3.81;100.00;101075.19;4973971;28;20069;-67
2021/12/27 02:13:03;;;;;;;12.20;11.60;;;;;;;-3.85;100.00;101071.06;4975080;28;20127;-66
2021/12/27 02:15:29;;;;;;;11.63;11.02;;;;;;;-3.90;100.00;101065.22;4975107;28;20042;-70
2021/12/27 02:17:54;;;;;;;11.75;11.15;;;;;;;-3.89;100.00;101082.50;4974942;28;20030;-69
2021/12/27 02:20:26;;;;;;;12.05;11.45;;;;;;;-3.87;100.00;101072.88;4975201;28;20035;-69
2021/12/27 02:22:55;;;;;;;12.02;11.43;;;;;;;-3.87;100.00;101079.81;4975147;28;20039;-68
2021/12/27 02:25:21;;;;;;;11.63;11.02;;;;;;;-3.87;100.00;101075.47;4975003;28;20439;-71
2021/12/27 02:27:50;;;;;;;11.75;11.15;;;;;;;-3.82;100.00;101073.50;4974988;28;20170;-67
2021/12/27 02:30:17;;;;;;;11.07;10.57;;;;;;;-3.76;100.00;101082.75;4975207;28;20031;-71
2021/12/27 02:32:51;;;;;;;11.95;11.35;;;;;;;-3.76;100.00;101086.19;4972581;28;20516;-69
2021/12/27 02:35:22;;;;;;;;;;;;;;;-3.82;100.00;101086.44;4974646;28;20077;-71
2021/12/27 02:37:48;;;;;;;12.02;11.43;;;;;;;-3.78;100.00;101082.81;4974658;28;19917;-68
2021/12/27 02:40:14;;;;;;;12.05;11.45;;;;;;;-3.82;100.00;101094.22;4974587;28;20035;-70
2021/12/27 02:42:56;;;;;;;11.98;11.38;;;;;;;-3.77;100.00;101097.47;4974618;28;20476;-72
2021/12/27 02:45:21;;;;;;;11.82;11.23;;;;;;;-3.81;100.00;101103.72;4968817;28;20389;-69
2021/12/27 02:47:47;;;;;;;12.10;11.50;;;;;;;-3.81;100.00;101103.72;4966756;28;20039;-71
2021/12/27 02:50:13;;;;;;;11.52;10.93;;;;;;;-3.80;100.00;101108.00;4974422;28;20393;-69
2021/12/27 02:52:39;;;;;;;10.98;10.48;;;;;;;-3.85;100.00;101103.91;4975658;28;20134;-70
2021/12/27 02:55:04;;;;;;;12.32;11.68;;;;;;;-3.96;100.00;101097.47;4974406;28;20474;-68
2021/12/27 02:57:30;;;;;;;11.98;11.38;;;;;;;-3.94;100.00;101105.16;4974483;28;20054;-68
2021/12/27 02:59:57;;;;;;;12.50;11.80;;;;;;;-3.90;100.00;101093.75;4974259;28;20029;-71
2021/12/27 03:02:25;;;;;;;12.48;11.77;;;;;;;-4.08;100.00;101098.00;4974172;28;20429;-71
2021/12/27 03:04:51;;;;;;;11.77;11.18;;;;;;;-3.98;100.00;101107.03;4974575;28;20019;-70
2021/12/27 03:07:16;;;;;;;11.88;11.27;;;;;;;-3.98;100.00;101113.97;4974224;28;20472;-70
2021/12/27 03:09:42;;;;;;;11.73;11.13;;;;;;;-3.93;100.00;101109.44;4973953;28;20042;-67
2021/12/27 03:12:11;;;;;;;11.70;11.10;;;;;;;-3.92;100.00;101100.75;4974459;28;20026;-71
2021/12/27 03:14:37;;;;;;;12.02;11.43;;;;;;;-4.12;100.00;101099.03;4958980;28;20443;-71
2021/12/27 03:17:03;;;;;;;11.70;11.13;;;;;;;-4.00;100.00;101092.47;4959057;28;20109;-70
2021/12/27 03:19:29;;;;;;;11.98;11.38;;;;;;;-4.11;100.00;101090.38;4973989;28;20109;-71
2021/12/27 03:21:54;;;;;;;11.65;11.05;;;;;;;-4.03;100.00;101085.69;4974318;28;20174;-70
2021/12/27 03:24:21;;;;;;;11.70;11.10;;;;;;;-3.94;100.00;101087.03;4974004;28;20089;-70
2021/12/27 03:26:46;;;;;;;12.00;11.40;;;;;;;-4.02;100.00;101087.38;4974950;28;20535;-71
2021/12/27 03:29:12;;;;;;;11.77;11.18;;;;;;;-4.05;100.00;101089.25;4972596;28;20162;-70
2021/12/27 03:31:38;;;;;;;12.00;11.40;;;;;;;-3.88;100.00;101072.97;4973786;28;20401;-68
2021/12/27 03:34:04;;;;;;;11.95;11.35;;;;;;;-4.02;100.00;101086.53;4974433;28;20034;-71
2021/12/27 03:36:37;;;;;;;11.75;11.15;;;;;;;-4.07;100.00;101085.88;4973705;28;20023;-68
2021/12/27 03:39:06;;;;;;;11.77;11.18;;;;;;;-4.17;100.00;101088.88;4973617;28;20395;-68
2021/12/27 03:41:31;;;;;;;12.30;11.63;;;;;;;-4.02;100.00;101078.75;4973385;28;20166;-68
2021/12/27 03:43:57;;;;;;;11.23;10.73;;;;;;;-4.08;100.00;101084.19;4968131;28;20054;-66
2021/12/27 03:46:22;;;;;;;12.00;11.40;;;;;;;-4.11;100.00;101086.91;4973329;28;20034;-68
2021/12/27 03:48:48;;;;;;;11.60;11.00;;;;;;;-3.88;100.00;101089.34;4973501;28;20041;-70
2021/12/27 03:51:13;;;;;;;11.77;11.18;;;;;;;-4.05;100.00;101092.66;4973348;28;20018;-67
2021/12/27 03:53:40;;;;;;;11.10;10.60;;;;;;;-3.99;100.00;101102.75;4973328;28;20070;-72
2021/12/27 03:56:08;;;;;;;11.57;10.98;;;;;;;-4.09;100.00;101105.84;4973210;28;20089;-70
2021/12/27 03:58:46;;;;;;;11.50;10.90;;;;;;;-4.09;100.00;101106.69;4972930;28;20037;-69
2021/12/27 04:01:16;;;;;;;11.65;11.07;;;;;;;-4.13;100.00;101101.69;4973190;28;20073;-72
2021/12/27 04:03:47;;;;;;;11.90;11.30;;;;;;;-4.17;100.00;101104.44;4974658;28;20389;-70
2021/12/27 04:06:14;;;;;;;11.38;10.80;;;;;;;-4.17;100.00;101101.84;4974322;28;20030;-71
2021/12/27 04:08:40;;;;;;;11.85;11.25;;;;;;;-4.22;100.00;101103.78;4972675;28;20031;-71
2021/12/27 04:11:06;;;;;;;11.68;11.07;;;;;;;-4.18;100.00;101109.69;4973030;28;20078;-71
2021/12/27 04:13:31;;;;;;;11.75;11.20;;;;;;;-4.12;100.00;101106.78;4974161;28;20019;-68
2021/12/27 04:15:57;;;;;;;12.30;11.68;;;;;;;-4.23;100.00;101112.47;4974290;28;20041;-69
2021/12/27 04:18:23;;;;;;;12.65;11.95;;;;;;;-4.18;100.00;101122.63;4972765;28;20022;-69
2021/12/27 04:20:48;;;;;;;12.27;11.68;;;;;;;-4.26;100.00;101119.50;4973117;28;20030;-69
2021/12/27 04:23:14;;;;;;;11.70;11.10;;;;;;;-4.20;100.00;101127.03;4972584;28;20484;-68
2021/12/27 04:25:40;;;;;;;12.52;11.90;;;;;;;-4.13;100.00;101125.84;4971042;28;20037;-71
2021/12/27 04:28:07;;;;;;;11.77;11.18;;;;;;;-4.25;100.00;101126.41;4972853;28;20019;-72
2021/12/27 04:30:32;;;;;;;11.75;11.15;;;;;;;-4.21;100.00;101128.78;4972702;28;20117;-70
2021/12/27 04:32:58;;;;;;;11.90;11.30;;;;;;;-4.15;100.00;101132.84;4972561;28;20102;-72
2021/12/27 04:35:23;;;;;;;11.85;11.25;;;;;;;-4.22;100.00;101127.09;4972502;28;20027;-71
2021/12/27 04:37:50;;;;;;;11.70;11.10;;;;;;;-4.23;100.00;101133.19;4973451;28;20477;-68
2021/12/27 04:40:18;;;;;;;11.93;11.32;;;;;;;-4.29;100.00;101135.19;4972425;28;20030;-67
2021/12/27 04:42:48;;;;;;;12.05;11.45;;;;;;;-4.35;100.00;101127.66;4974067;28;20110;-72
2021/12/27 04:45:14;;;;;;;12.00;11.40;;;;;;;-4.36;100.00;101132.00;4972673;28;20465;-69
2021/12/27 04:47:41;;;;;;;12.10;11.50;;;;;;;-4.22;100.00;101137.44;4973948;28;20471;-70
2021/12/27 04:50:07;;;;;;;12.25;11.65;;;;;;;-4.37;100.00;101130.34;4972550;28;20029;-69
2021/12/27 04:52:33;;;;;;;12.38;11.73;;;;;;;-4.34;100.00;101117.25;4973273;28;20404;-69
2021/12/27 04:54:58;;;;;;;12.15;11.55;;;;;;;-4.41;100.00;101131.34;4972065;28;20026;-71
2021/12/27 04:57:24;;;;;;;11.80;11.20;;;;;;;-4.47;100.00;101123.88;4972475;28;20110;-69
2021/12/27 04:59:49;;;;;;;12.02;11.43;;;;;;;-4.43;100.00;101127.16;4972877;28;20539;-67
2021/12/27 05:02:15;;;;;;;12.20;11.60;;;;;;;-4.42;100.00;101132.28;4972624;28;20495;-69
2021/12/27 05:04:40;;;;;;;13.15;12.45;;;;;;;-4.47;100.00;101132.47;4971935;28;20019;-68
2021/12/27 05:07:06;;;;;;;12.45;11.85;;;;;;;-4.47;100.00;101126.47;4972406;28;20042;-68
2021/12/27 05:09:31;;;;;;;12.77;12.10;;;;;;;-4.51;100.00;101133.50;4960096;28;20385;-71
2021/12/27 05:11:57;;;;;;;12.75;12.13;;;;;;;-4.50;100.00;101127.41;4972475;28;20031;-73
2021/12/27 05:14:22;;;;;;;12.27;11.68;;;;;;;-4.45;100.00;101119.47;4970779;28;20485;-70
2021/12/27 05:16:48;;;;;;;12.52;11.93;;;;;;;-4.55;100.00;101131.97;4972337;28;20106;-69
2021/12/27 05:19:14;;;;;;;12.60;12.00;;;;;;;-4.53;100.00;101132.72;4971908;28;20031;-71
2021/12/27 05:21:40;;;;;;;12.45;11.85;;;;;;;-4.56;100.00;101132.00;4973218;28;20042;-68
2021/12/27 05:24:06;;;;;;;12.70;12.10;;;;;;;-4.47;100.00;101136.81;4972309;28;20023;-69
2021/12/27 05:26:31;;;;;;;11.93;11.40;;;;;;;-4.41;100.00;101146.91;4972263;28;20022;-69
2021/12/27 05:28:57;;;;;;;12.52;11.93;;;;;;;-4.52;100.00;101134.41;4972340;28;20515;-70
2021/12/27 05:31:22;;;;;;;13.25;12.57;;;;;;;-4.38;100.00;101135.59;4971731;28;20142;-69
2021/12/27 05:33:48;;;;;;;12.73;12.05;;;;;;;-4.53;100.00;101150.00;4971843;28;20038;-71
2021/12/27 05:36:13;;;;;;;12.73;12.07;;;;;;;-4.51;100.00;101146.44;4968918;28;20257;-68
2021/12/27 05:38:40;;;;;;;12.60;12.00;;;;;;;-4.46;100.00;101135.91;4975722;28;20589;-68
2021/12/27 05:41:05;;;;;;;12.70;12.00;;;;;;;-4.53;100.00;101134.47;4975810;28;20023;-67
2021/12/27 05:43:31;;;;;;;13.98;13.18;;;;;;;-4.48;100.00;101150.66;4975711;28;20389;-67
2021/12/27 05:45:57;;;;;;;13.20;12.52;;;;;;;-4.54;100.00;101149.16;4975669;28;20114;-66
2021/12/27 05:48:22;;;;;;;13.20;12.50;;;;;;;-4.47;100.00;101135.06;4975378;28;20030;-67
2021/12/27 05:50:48;;;;;;;12.23;11.63;;;;;;;-4.42;100.00;101139.19;4975357;28;20026;-69
2021/12/27 05:53:14;;;;;;;12.30;11.70;;;;;;;-4.47;100.00;101145.44;4975328;28;20050;-69
2021/12/27 05:55:40;;;;;;;14.50;13.60;;;;;;;-4.53;100.00;101145.69;4975281;28;20037;-68
2021/12/27 05:58:06;;;;;;;14.10;13.30;;;;;;;-4.45;100.00;101150.53;4975018;28;20039;-68
2021/12/27 06:00:31;;;;;;;14.15;13.27;;;;;;;-4.44;100.00;101149.63;4976769;28;20074;-67
2021/12/27 06:02:57;;;;;;;13.02;12.32;;;;;;;-4.38;100.00;101151.97;4975133;28;20438;-68
2021/12/27 06:05:24;;;;;;;13.38;12.63;;;;;;;-4.46;100.00;101143.69;4975200;28;20027;-69
2021/12/27 06:07:50;;;;;;;13.15;12.43;;;;;;;-4.41;100.00;101152.06;4974735;28;20355;-71
2021/12/27 06:10:16;;;;;;;13.10;12.40;;;;;;;-4.47;100.00;101142.84;4974797;28;20027;-70
2021/12/27 06:12:42;;;;;;;13.32;12.63;;;;;;;-4.42;100.00;101141.78;4974913;28;20090;-69
2021/12/27 06:15:08;;;;;;;13.23;12.52;;;;;;;-4.45;100.00;101146.19;4976317;28;20027;-69
2021/12/27 06:17:34;;;;;;;13.15;12.45;;;;;;;-4.34;100.00;101148.31;4974714;28;20560;-70
2021/12/27 06:20:01;;;;;;;13.85;13.05;;;;;;;-4.47;100.00;101157.53;4974624;28;20094;-68
2021/12/27 06:22:28;;;;;;;13.93;13.13;;;;;;;-4.52;100.00;101149.94;4974872;28;20030;-71
2021/12/27 06:24:54;;;;;;;12.48;11.88;;;;;;;-4.50;100.00;101161.06;4975131;28;20070;-72
2021/12/27 06:27:19;;;;;;;12.82;12.13;;;;;;;-4.42;100.00;101171.09;4974766;28;20110;-72
2021/12/27 06:29:45;;;;;;;13.60;12.90;;;;;;;-4.51;100.00;101169.75;4974715;28;20023;-70
2021/12/27 06:32:13;;;;;;;12.85;12.18;;;;;;;-4.43;100.00;101166.00;4974992;28;20024;-71
2021/12/27 06:34:40;;;;;;;13.85;13.15;;;;;;;-4.46;100.00;101170.41;4976072;28;20034;-71
2021/12/27 06:37:06;;;;;;;13.55;12.75;;;;;;;-4.47;100.00;101166.13;4974568;28;20031;-66
2021/12/27 06:39:31;;;;;;;13.10;12.40;;;;;;;-4.45;100.00;101166.06;4974729;28;20473;-72
2021/12/27 06:41:57;;;;;;;13.50;12.75;;;;;;;-4.28;100.00;101178.31;4974803;28;20060;-69
2021/12/27 06:44:22;;;;;;;13.63;12.82;;;;;;;-4.38;100.00;101187.38;4974063;28;20489;-69
2021/12/27 06:46:48;;;;;;;12.85;12.15;;;;;;;-4.27;100.00;101186.00;4974350;28;20042;-70
2021/12/27 06:49:14;;;;;;;12.40;11.77;;;;;;;-4.45;100.00;101190.22;4975047;28;21809;-68
2021/12/27 06:51:39;;;;;;;12.38;11.70;;;;;;;-4.31;100.00;101173.28;4974409;28;20143;-70
2021/12/27 06:54:05;;;;;;;14.05;13.25;;;;;;;-4.23;100.00;101171.19;4973915;28;20125;-68
2021/12/27 06:56:30;;;;;;;12.55;11.85;;;;;;;-4.34;100.00;101184.59;4974655;28;20024;-68
2021/12/27 06:58:56;;;;;;;13.00;12.30;;;;;;;-4.29;100.00;101177.47;4974054;28;20081;-70
2021/12/27 07:01:22;;;;;;;12.82;12.13;;;;;;;-4.25;100.00;101176.44;4974182;28;20024;-69
2021/12/27 07:03:47;;;;;;;13.35;12.60;;;;;;;-4.28;100.00;101167.94;4974500;28;20031;-70
2021/12/27 07:06:12;;;;;;;13.23;12.52;;;;;;;-4.26;100.00;101166.13;4974171;28;20487;-71
2021/12/27 07:08:38;;;;;;;13.77;13.00;;;;;;;-4.32;100.00;101180.19;4968254;28;20030;-72
2021/12/27 07:11:04;;;;;;;13.73;12.93;;;;;;;-4.19;100.00;101158.06;4973871;28;20106;-72
2021/12/27 07:13:29;;;;;;;13.95;13.15;;;;;;;-4.13;100.00;101163.88;4972416;28;20039;-70
2021/12/27 07:15:55;;;;;;;13.15;12.45;;;;;;;-4.36;100.00;101165.69;4972270;28;20024;-70
2021/12/27 07:18:23;;;;;;;15.02;14.13;;;;;;;-4.26;100.00;101143.69;4974871;28;20026;-69
2021/12/27 07:20:53;;;;;;;14.35;13.50;;;;;;;-4.21;100.00;101152.09;4973477;28;20038;-72
2021/12/27 07:23:19;;;;;;;13.00;12.30;;;;;;;-4.32;100.00;101159.47;4973600;28;20117;-69
2021/12/27 07:25:44;;;;;;;12.32;11.73;;;;;;;-4.18;100.00;101171.84;4973481;28;20038;-71
2021/12/27 07:28:10;;;;;;;13.27;12.57;;;;;;;-4.20;100.00;101171.06;4973792;28;20043;-71
2021/12/27 07:30:35;;;;;;;13.50;12.75;;;;;;;-4.09;100.00;101170.63;4974567;28;20026;-69
2021/12/27 07:33:01;;;;;;;14.82;13.93;;;;;;;-4.29;100.00;101176.63;4973244;28;20023;-69
2021/12/27 07:35:26;;;;;;;15.65;14.70;;;;;;;-4.10;100.00;101171.53;4973396;28;20067;-66
2021/12/27 07:37:52;;;;;;;12.55;11.85;;;;;;;-4.01;100.00;101171.97;4973517;28;20030;-70
2021/12/27 07:40:18;;;;;;;12.77;12.07;;;;;;;-4.17;100.00;101169.19;4973437;28;20548;-73
2021/12/27 07:42:43;;;;;;;13.80;13.00;;;;;;;-4.30;100.00;101162.84;4973387;28;20065;-66
2021/12/27 07:45:09;;;;;;;12.90;12.20;;;;;;;-4.23;100.00;101166.84;4973674;28;20461;-68
2021/12/27 07:47:35;;;;;;;12.90;12.20;;;;;;;-4.20;100.00;101158.94;4973341;28;20482;-69
2021/12/27 07:50:01;;;;;;;13.27;12.57;;;;;;;-3.96;100.00;101153.63;4973342;28;20062;-69
2021/12/27 07:52:27;;;;;;;12.57;11.98;;;;;;;-4.05;100.00;101154.00;4973214;28;20086;-70
2021/12/27 07:54:52;;;;;;;12.98;12.27;;;;;;;-3.85;100.00;101154.00;4973145;28;20051;-71
2021/12/27 07:57:18;;;;;;;12.25;11.65;;;;;;;-3.92;100.00;101153.41;4974517;28;20469;-68
2021/12/27 07:59:47;;;;;;;12.32;11.73;;;;;;;-4.01;100.00;101151.25;4973511;28;20094;-68
2021/12/27 08:02:14;;;;;;;12.48;11.77;;;;;;;-4.11;100.00;101160.31;4973185;28;20034;-71
2021/12/27 08:04:39;;;;;;;13.55;12.75;;;;;;;-4.12;100.00;101148.25;4973053;28;20504;-71
2021/12/27 08:07:05;;;;;;;12.48;11.85;;;;;;;-4.26;100.00;101151.47;4973085;28;20043;-71
2021/12/27 08:09:30;;;;;;;12.77;12.07;;;;;;;-3.89;100.00;101147.28;4959215;28;20047;-68
2021/12/27 08:11:56;;;;;;;12.35;11.70;;;;;;;-4.23;100.00;101143.53;4973091;28;20433;-69
2021/12/27 08:14:21;;;;;;;12.40;11.75;;;;;;;-3.98;100.00;101145.06;4973477;28;20035;-69
2021/12/27 08:16:47;;;;;;;12.27;11.68;;;;;;;-4.08;100.00;101138.63;4974728;28;20436;-69
2021/12/27 08:19:12;;;;;;;13.07;12.38;;;;;;;-4.08;100.00;101155.00;4973763;28;20031;-69
2021/12/27 08:21:38;;;;;;;13.75;12.95;;;;;;;-4.00;100.00;101157.25;4972252;28;20444;-69
2021/12/27 08:24:05;;;;;;;12.88;12.18;;;;;;;-3.96;100.00;101151.88;4972649;28;20031;-68
2021/12/27 08:26:31;;;;;;;11.95;11.35;;;;;;;-3.98;100.00;101150.25;4972245;28;20024;-69
2021/12/27 08:28:57;;;;;;;12.57;11.88;;;;;;;-4.02;100.00;101152.16;4972580;28;20617;-67
2021/12/27 08:31:23;;;;;;;13.25;12.52;;;;;;;-3.82;100.00;101142.63;4972421;28;20118;-71
2021/12/27 08:33:48;;;;;;;14.45;13.55;;;;;;;-4.19;100.00;101141.66;4972376;28;20362;-70
2021/12/27 08:36:14;;;;;;;14.35;13.43;;;;;;;-3.99;100.00;101133.88;4973761;28;20023;-70
2021/12/27 08:38:40;;;;;;;12.15;11.55;;;;;;;-3.97;100.00;101137.22;4969579;28;20511;-69
2021/12/27 08:41:05;;;;;;;12.40;11.80;;;;;;;-3.95;100.00;101134.59;4972999;28;20061;-69
2021/12/27 08:43:31;;;;;;;12.30;11.70;;;;;;;-3.98;100.00;101145.06;4974019;28;20495;-69
2021/12/27 08:45:59;;;;;;;13.35;12.55;;;;;;;-4.09;100.00;101132.59;4972388;28;20023;-69
2021/12/27 08:48:24;;;;;;;12.18;11.55;;;;;;;-4.00;100.00;101146.91;4972680;28;20061;-66
2021/12/27 08:50:50;;;;;;;12.55;11.85;;;;;;;-3.79;100.00;101137.34;4972655;28;20461;-69
2021/12/27 08:53:15;;;;;;;12.55;11.85;;;;;;;-3.72;100.00;101130.97;4965244;28;20122;-71
2021/12/27 08:55:41;;;;;;;12.18;11.57;;;;;;;-3.76;100.00;101125.06;4973875;28;20073;-71
2021/12/27 08:58:06;;;;;;;12.38;11.73;;;;;;;-3.75;100.00;101147.47;4972084;28;20054;-71
2021/12/27 09:00:32;;;;;;;11.88;11.27;;;;;;;-3.65;100.00;101125.44;4973710;28;20031;-68
2021/12/27 09:02:58;;;;;;;11.85;11.25;;;;;;;-3.66;100.00;101112.56;4972523;28;20093;-68
2021/12/27 09:05:23;;;;;;;11.63;11.02;;;;;;;-3.61;100.00;101116.59;4972632;28;20039;-67
2021/12/27 09:07:49;;;;;;;12.60;11.85;;;;;;;-3.54;100.00;101122.34;4969521;28;20027;-68
2021/12/27 09:10:15;;;;;;;11.95;11.35;;;;;;;-3.44;100.00;101117.59;4972412;28;20027;-72
2021/12/27 09:12:41;;;;;;;10.90;10.40;;;;;;;-3.58;100.00;101126.00;4972176;28;20026;-72
2021/12/27 09:15:08;;;;;;;11.93;11.32;;;;;;;-3.53;100.00;101105.03;4972345;28;20556;-70
2021/12/27 09:17:34;;;;;;;12.55;11.85;;;;;;;-3.46;100.00;101103.84;4973420;28;20067;-70
2021/12/27 09:20:00;;;;;;;12.25;11.55;;;;;;;-3.72;100.00;101097.28;4972412;28;20034;-71
2021/12/27 09:22:25;;;;;;;12.50;11.80;;;;;;;-3.46;100.00;101093.47;4972837;28;20027;-71
2021/12/27 09:24:51;;;;;;;11.45;10.85;;;;;;;-3.58;100.00;101088.88;4972467;28;20026;-70
2021/12/27 09:27:17;;;;;;;11.93;11.32;;;;;;;-3.52;100.00;101083.41;4972032;28;20441;-72
2021/12/27 09:29:43;;;;;;;11.63;11.02;;;;;;;-3.42;100.00;101069.06;4971823;28;20069;-69
2021/12/27 09:32:13;;;;;;;12.07;11.45;;;;;;;-3.42;100.00;101082.03;4972696;28;20399;-70
2021/12/27 09:34:39;;;;;;;12.15;11.50;;;;;;;-3.30;100.00;101088.44;4968511;28;20474;-66
2021/12/27 09:37:05;;;;;;;13.13;12.32;;;;;;;-3.43;100.00;101091.59;4970825;28;20038;-73
2021/12/27 09:39:30;;;;;;;11.68;11.07;;;;;;;-2.89;100.00;101082.06;4972860;28;20019;-69
2021/12/27 09:41:56;;;;;;;13.38;12.55;;;;;;;-3.35;100.00;101083.44;4972034;28;20034;-69
2021/12/27 09:44:21;;;;;;;13.00;12.20;;;;;;;-3.36;100.00;101068.78;4972962;28;20031;-68
2021/12/27 09:46:47;;;;;;;12.23;11.52;;;;;;;-3.43;100.00;101072.59;4971704;28;20113;-72
2021/12/27 09:49:15;;;;;;;11.40;10.80;;;;;;;-3.31;100.00;101064.22;4971326;28;20030;-71
2021/12/27 09:51:41;;;;;;;12.38;11.68;;;;;;;-3.40;100.00;101069.84;4971683;28;20381;-67
2021/12/27 09:54:08;;;;;;;12.55;11.85;;;;;;;-3.35;100.00;101065.28;4972478;28;20057;-67
2021/12/27 09:56:34;;;;;;;12.07;11.38;;;;;;;-3.45;100.00;101074.38;4972240;28;20093;-68
2021/12/27 09:59:00;;;;;;;12.48;11.75;;;;;;;-3.48;100.00;101075.38;4971361;28;20039;-70
2021/12/27 10:01:25;;;;;;;11.88;11.25;;;;;;;-3.21;100.00;101075.00;4971350;28;20098;-69
2021/12/27 10:03:54;;;;;;;11.10;10.60;;;;;;;-3.37;100.00;101074.91;4960023;28;20027;-67
2021/12/27 10:06:23;;;;;;;12.45;11.75;;;;;;;-3.29;100.00;101070.19;4972370;28;20123;-71
2021/12/27 10:08:54;;;;;;;11.75;11.15;;;;;;;-3.50;100.00;101068.59;4971794;28;20473;-70
2021/12/27 10:11:24;;;;;;;12.40;11.70;;;;;;;-3.70;100.00;101065.16;4971277;28;20097;-71
2021/12/27 10:14:17;;;;;;;12.55;11.85;;;;;;;-3.59;100.00;101069.03;4965630;28;20023;-71
2021/12/27 10:16:51;;;;;;;13.10;12.30;;;;;;;-3.67;100.00;101062.44;4953398;28;20040;-67
2021/12/27 10:19:19;;;;;;;12.38;11.65;;;;;;;-3.17;100.00;101063.56;4961977;28;20014;-69
2021/12/27 10:21:52;;;;;;;13.00;12.23;;;;;;;-3.49;100.00;101047.78;4971231;28;20031;-68
2021/12/27 10:24:19;;;;;;;12.85;12.05;;;;;;;-3.38;100.00;101044.66;4973644;28;20027;-70
2021/12/27 10:26:47;;;;;;;12.57;11.88;;;;;;;-3.38;100.00;101040.34;4974610;28;20106;-69
2021/12/27 10:29:22;;;;;;;11.75;11.15;;;;;;;-3.39;100.00;101042.97;4974652;28;20095;-67
2021/12/27 10:31:57;;;;;;;11.23;10.70;;;;;;;-3.28;100.00;101034.72;4974036;28;20101;-67
2021/12/27 10:34:27;;;;;;;10.90;10.40;;;;;;;-2.88;100.00;101025.78;4974711;28;20480;-69
2021/12/27 10:37:10;;;;;;;12.57;11.80;;;;;;;-3.33;100.00;101014.16;4974569;28;20034;-69
2021/12/27 10:39:49;;;;;;;11.48;10.88;;;;;;;-3.36;100.00;101011.72;4974679;28;20041;-68
2021/12/27 10:42:47;;;;;;;11.73;11.07;;;;;;;-2.91;100.00;101013.81;4974865;28;20038;-68
2021/12/27 10:45:18;;;;;;;11.82;11.13;;;;;;;-2.96;100.00;101013.19;4974380;28;20037;-71
2021/12/27 10:47:47;;;;;;;11.95;11.25;;;;;;;-3.42;100.00;101012.84;4975514;28;20034;-69
2021/12/27 10:50:28;;;;;;;12.20;11.50;;;;;;;-3.58;100.00;100996.34;4974536;28;20031;-70
2021/12/27 10:53:02;;;;;;;12.45;11.75;;;;;;;-3.13;100.00;101002.81;4975243;28;20034;-71
2021/12/27 10:55:35;;;;;;;11.88;11.18;;;;;;;-3.18;100.00;101002.19;4974562;28;20038;-72
2021/12/27 10:58:28;;;;;;;10.85;10.35;;;;;;;-3.06;100.00;101005.03;4975365;28;20376;-67
2021/12/27 11:01:11;;;;;;;11.48;10.88;;;;;;;-3.35;100.00;101008.22;4973668;28;20118;-66